Time;durP1;ratioP1;P1;durP2;ratioP2;P2;SDS_P1;SDS_P2;PMS_P1;PMS_P2;Temp;Humidity;BMP_temperature;BMP_pressure;BME280_temperature;BME280_humidity;BME280_pressure;Samples;Min_cycle;Max_cycle;Signal;HPM_P1;HPM_P2
2020/12/19 00:00:05;;;;;;;0.50;0.50;;;2.90;99.90;;;;;;5034135;28;20622;-88
2020/12/19 00:02:31;;;;;;;0.50;0.50;;;2.90;99.90;;;;;;5034719;28;20664;-86
2020/12/19 00:05:01;;;;;;;0.52;0.52;;;2.90;99.90;;;;;;5034735;28;20212;-87
2020/12/19 00:07:28;;;;;;;0.50;0.50;;;3.00;99.90;;;;;;5034623;28;20239;-88
2020/12/19 00:09:54;;;;;;;0.50;0.50;;;2.90;99.90;;;;;;5034723;28;20209;-89
2020/12/19 00:12:23;;;;;;;0.50;0.50;;;2.90;99.90;;;;;;5034391;28;20201;-87
2020/12/19 00:14:50;;;;;;;0.50;0.50;;;3.00;99.90;;;;;;5034736;28;20209;-87
2020/12/19 00:17:17;;;;;;;0.50;0.50;;;2.90;99.90;;;;;;5034454;28;20208;-88
2020/12/19 00:19:43;;;;;;;0.50;0.50;;;2.80;99.90;;;;;;5034754;28;20212;-88
2020/12/19 00:22:09;;;;;;;0.60;0.60;;;2.80;99.90;;;;;;5034106;28;20201;-85
2020/12/19 00:24:38;;;;;;;0.55;0.55;;;2.80;99.90;;;;;;5034463;28;20208;-86
2020/12/19 00:27:08;;;;;;;0.50;0.50;;;2.80;99.90;;;;;;5034454;28;20236;-86
2020/12/19 00:29:35;;;;;;;0.50;0.50;;;2.80;99.90;;;;;;5034364;28;20640;-87
2020/12/19 00:32:02;;;;;;;0.50;0.50;;;2.80;99.90;;;;;;5034239;28;20205;-87
2020/12/19 00:34:28;;;;;;;0.50;0.50;;;2.80;99.90;;;;;;5034314;28;20209;-87
2020/12/19 00:36:54;;;;;;;0.50;0.50;;;2.80;99.90;;;;;;5034608;28;20255;-88
2020/12/19 00:39:21;;;;;;;0.50;0.50;;;2.70;99.90;;;;;;5034108;28;20209;-86
2020/12/19 00:41:51;;;;;;;0.57;0.57;;;2.80;99.90;;;;;;5034373;28;20251;-88
2020/12/19 00:44:17;;;;;;;0.50;0.50;;;2.80;99.90;;;;;;5034555;28;20205;-88
2020/12/19 00:46:48;;;;;;;0.50;0.50;;;2.70;99.90;;;;;;5034322;28;20742;-85
2020/12/19 00:49:15;;;;;;;0.60;0.60;;;2.70;99.90;;;;;;5034024;28;20240;-87
2020/12/19 00:51:41;;;;;;;0.50;0.50;;;2.80;99.90;;;;;;5034288;28;20725;-87
2020/12/19 00:54:07;;;;;;;0.50;0.50;;;2.80;99.90;;;;;;5033860;28;20636;-86
2020/12/19 00:56:33;;;;;;;0.50;0.50;;;2.70;99.90;;;;;;5033115;28;20201;-87
2020/12/19 00:58:59;;;;;;;0.50;0.50;;;2.70;99.90;;;;;;5033743;28;20606;-86
2020/12/19 01:01:26;;;;;;;0.57;0.57;;;2.70;99.90;;;;;;5033564;28;20267;-86
2020/12/19 01:03:57;;;;;;;0.50;0.50;;;2.70;99.90;;;;;;5033676;28;20270;-86
2020/12/19 01:06:25;;;;;;;0.50;0.50;;;2.70;99.90;;;;;;5033252;28;20229;-87
2020/12/19 01:08:53;;;;;;;0.50;0.50;;;2.70;99.90;;;;;;5033329;28;20660;-88
2020/12/19 01:11:22;;;;;;;0.50;0.50;;;2.70;99.90;;;;;;5031947;28;20263;-85
2020/12/19 01:13:49;;;;;;;0.50;0.50;;;2.70;99.90;;;;;;5033579;28;20213;-88
2020/12/19 01:16:16;;;;;;;0.50;0.50;;;2.70;99.90;;;;;;5033008;28;20224;-86
2020/12/19 01:18:43;;;;;;;0.50;0.50;;;2.70;99.90;;;;;;5033276;28;20191;-87
2020/12/19 01:21:12;;;;;;;0.50;0.50;;;2.70;99.90;;;;;;5032691;28;20201;-87
2020/12/19 01:23:40;;;;;;;0.50;0.50;;;2.60;99.90;;;;;;5032976;28;20209;-87
2020/12/19 01:26:06;;;;;;;0.50;0.50;;;2.70;99.90;;;;;;5033044;28;20232;-86
2020/12/19 01:28:33;;;;;;;0.60;0.60;;;2.60;99.90;;;;;;5033160;28;20240;-85
2020/12/19 01:31:02;;;;;;;0.50;0.50;;;2.60;99.90;;;;;;5033085;28;20208;-87
2020/12/19 01:33:28;;;;;;;0.50;0.50;;;2.60;99.90;;;;;;5032904;28;20640;-87
2020/12/19 01:35:54;;;;;;;0.50;0.50;;;2.70;99.90;;;;;;5032785;28;20197;-85
2020/12/19 01:38:23;;;;;;;0.50;0.50;;;2.70;99.90;;;;;;5032836;28;20216;-87
2020/12/19 01:40:51;;;;;;;0.50;0.50;;;2.70;99.90;;;;;;5033095;28;20266;-88
2020/12/19 01:43:19;;;;;;;0.50;0.50;;;2.70;99.90;;;;;;5032959;28;20204;-88
2020/12/19 01:45:45;;;;;;;0.50;0.50;;;2.70;99.90;;;;;;5032594;28;20216;-87
2020/12/19 01:48:19;;;;;;;0.50;0.50;;;2.60;99.90;;;;;;5032789;28;20209;-87
2020/12/19 01:50:47;;;;;;;0.50;0.50;;;2.60;99.90;;;;;;5032576;28;20742;-87
2020/12/19 01:53:13;;;;;;;0.50;0.50;;;2.70;99.90;;;;;;5032606;28;20619;-86
2020/12/19 01:55:40;;;;;;;0.50;0.50;;;2.70;99.90;;;;;;5032472;28;20247;-88
2020/12/19 01:58:07;;;;;;;0.50;0.50;;;2.70;99.90;;;;;;5032628;28;20209;-86
2020/12/19 02:00:37;;;;;;;0.50;0.50;;;2.60;99.90;;;;;;5032321;28;20617;-86
2020/12/19 02:03:03;;;;;;;0.50;0.50;;;2.60;99.90;;;;;;5032594;28;20624;-88
2020/12/19 02:05:31;;;;;;;0.50;0.50;;;2.50;99.90;;;;;;5032191;28;20201;-87
2020/12/19 02:07:57;;;;;;;0.50;0.50;;;2.50;99.90;;;;;;5032291;28;20205;-86
2020/12/19 02:10:23;;;;;;;0.50;0.50;;;2.50;99.90;;;;;;5032101;28;20201;-85
2020/12/19 02:12:49;;;;;;;0.50;0.50;;;2.50;99.90;;;;;;5032245;28;20201;-88
2020/12/19 02:15:19;;;;;;;0.50;0.50;;;2.50;99.90;;;;;;5032503;28;20220;-87
2020/12/19 02:17:45;;;;;;;0.50;0.50;;;2.60;99.90;;;;;;5032131;28;20356;-86
2020/12/19 02:20:11;;;;;;;0.50;0.50;;;2.70;99.90;;;;;;5032097;28;20208;-86
2020/12/19 02:22:38;;;;;;;0.50;0.50;;;2.80;99.90;;;;;;5032062;28;20211;-87
2020/12/19 02:25:05;;;;;;;0.50;0.50;;;2.90;99.90;;;;;;5032082;28;20227;-86
2020/12/19 02:27:31;;;;;;;0.50;0.50;;;2.90;99.90;;;;;;5031742;28;20271;-86
2020/12/19 02:29:57;;;;;;;0.50;0.50;;;2.90;99.90;;;;;;5031880;28;20679;-86
2020/12/19 02:32:23;;;;;;;0.50;0.50;;;2.90;99.90;;;;;;5031970;28;20201;-86
2020/12/19 02:34:49;;;;;;;0.50;0.50;;;2.90;99.90;;;;;;5032102;28;20212;-87
2020/12/19 02:37:18;;;;;;;0.50;0.50;;;3.00;99.90;;;;;;5032047;28;20224;-87
2020/12/19 02:39:44;;;;;;;0.50;0.50;;;3.60;99.90;;;;;;5031914;28;20205;-86
2020/12/19 02:42:11;;;;;;;0.50;0.50;;;3.00;99.90;;;;;;5031699;28;20212;-86
2020/12/19 02:44:37;;;;;;;0.50;0.50;;;3.00;99.90;;;;;;5032130;28;20214;-87
2020/12/19 02:47:03;;;;;;;0.50;0.50;;;3.00;99.90;;;;;;5031516;28;20228;-85
2020/12/19 02:49:32;;;;;;;0.50;0.50;;;3.00;99.90;;;;;;5031468;28;20263;-87
2020/12/19 02:51:58;;;;;;;0.50;0.50;;;3.00;99.90;;;;;;5031694;28;20205;-87
2020/12/19 02:54:25;;;;;;;0.50;0.50;;;3.00;99.90;;;;;;5031293;28;20692;-86
2020/12/19 02:56:53;;;;;;;0.50;0.50;;;3.10;99.90;;;;;;5031479;28;20208;-86
2020/12/19 02:59:20;;;;;;;0.50;0.50;;;3.10;99.90;;;;;;5031873;28;20205;-87
2020/12/19 03:01:46;;;;;;;0.50;0.50;;;3.10;99.90;;;;;;5031515;28;20208;-87
2020/12/19 03:04:14;;;;;;;0.50;0.50;;;4.30;99.90;;;;;;5031211;28;20214;-85
2020/12/19 03:06:40;;;;;;;0.50;0.50;;;3.10;99.90;;;;;;5031288;28;20255;-86
2020/12/19 03:09:06;;;;;;;0.50;0.50;;;3.10;99.90;;;;;;5031482;28;20585;-87
2020/12/19 03:11:33;;;;;;;0.50;0.50;;;3.10;99.90;;;;;;5031254;28;20219;-88
2020/12/19 03:13:59;;;;;;;0.50;0.50;;;3.10;99.90;;;;;;5031237;28;20255;-86
2020/12/19 03:16:26;;;;;;;0.50;0.50;;;3.10;99.90;;;;;;5031176;28;20691;-87
2020/12/19 03:18:52;;;;;;;0.50;0.50;;;2.90;99.90;;;;;;5031573;28;20714;-88
2020/12/19 03:21:26;;;;;;;0.50;0.50;;;3.00;99.90;;;;;;5031229;28;20205;-87
2020/12/19 03:23:52;;;;;;;0.50;0.50;;;;;;;;;;5031192;28;20209;-88
2020/12/19 03:26:18;;;;;;;0.50;0.50;;;3.00;99.90;;;;;;5031381;28;20229;-88
2020/12/19 03:28:46;;;;;;;0.50;0.50;;;3.00;99.90;;;;;;5031298;28;20205;-86
2020/12/19 03:31:13;;;;;;;0.50;0.50;;;2.90;99.90;;;;;;5031977;28;20204;-86
2020/12/19 03:33:40;;;;;;;0.50;0.50;;;2.90;99.90;;;;;;5033963;28;20278;-88
2020/12/19 03:36:08;;;;;;;0.50;0.50;;;2.90;99.90;;;;;;5037913;28;20748;-88
2020/12/19 03:38:34;;;;;;;0.50;0.50;;;3.00;99.90;;;;;;5037981;28;20617;-87
2020/12/19 03:41:00;;;;;;;0.50;0.50;;;2.90;99.90;;;;;;5037761;28;20209;-87
2020/12/19 03:43:28;;;;;;;0.50;0.50;;;2.80;99.90;;;;;;5038208;28;20563;-87
2020/12/19 03:45:54;;;;;;;0.50;0.50;;;2.80;99.90;;;;;;5040633;28;20225;-88
2020/12/19 03:48:21;;;;;;;0.50;0.50;;;2.80;99.90;;;;;;5039113;28;20209;-86
2020/12/19 03:50:49;;;;;;;0.50;0.50;;;2.90;99.90;;;;;;5038263;28;20286;-87
2020/12/19 03:53:16;;;;;;;0.50;0.50;;;3.00;99.90;;;;;;5038385;28;20204;-88
2020/12/19 03:55:42;;;;;;;0.50;0.50;;;3.10;99.90;;;;;;5038521;28;20201;-86
2020/12/19 03:58:08;;;;;;;0.50;0.50;;;3.10;99.90;;;;;;5038219;28;20675;-87
2020/12/19 04:00:34;;;;;;;0.50;0.50;;;;;;;;;;5038053;28;20267;-87
2020/12/19 04:03:00;;;;;;;0.50;0.50;;;3.20;99.90;;;;;;5037919;28;20278;-88
2020/12/19 04:05:27;;;;;;;0.50;0.50;;;3.20;99.90;;;;;;5037824;28;20585;-87
2020/12/19 04:07:54;;;;;;;0.50;0.50;;;3.10;99.90;;;;;;5037165;28;20221;-88
2020/12/19 04:10:20;;;;;;;0.50;0.50;;;3.10;99.90;;;;;;5037562;28;20211;-88
2020/12/19 04:12:48;;;;;;;0.50;0.50;;;3.10;99.90;;;;;;5037768;28;20693;-87
2020/12/19 04:15:14;;;;;;;0.50;0.50;;;3.10;99.90;;;;;;5037387;28;20251;-86
2020/12/19 04:17:40;;;;;;;0.50;0.50;;;3.10;99.90;;;;;;5037523;28;20285;-87
2020/12/19 04:20:08;;;;;;;0.50;0.50;;;3.10;99.90;;;;;;5037565;28;20224;-87
2020/12/19 04:22:35;;;;;;;0.50;0.50;;;3.00;99.90;;;;;;5037494;28;20868;-87
2020/12/19 04:25:05;;;;;;;0.50;0.50;;;3.10;99.90;;;;;;5037625;28;20263;-86
2020/12/19 04:27:31;;;;;;;0.50;0.50;;;3.00;99.90;;;;;;5037378;28;20228;-87
2020/12/19 04:29:58;;;;;;;0.50;0.50;;;3.00;99.90;;;;;;5037606;28;20204;-87
2020/12/19 04:32:24;;;;;;;0.50;0.50;;;3.00;99.90;;;;;;5037474;28;20231;-87
2020/12/19 04:34:50;;;;;;;0.50;0.50;;;3.00;99.90;;;;;;5037346;28;20204;-87
2020/12/19 04:37:16;;;;;;;0.50;0.50;;;3.00;99.90;;;;;;5037493;28;20232;-87
2020/12/19 04:39:42;;;;;;;0.50;0.50;;;2.90;99.90;;;;;;5037483;28;20215;-86
2020/12/19 04:42:09;;;;;;;0.50;0.50;;;2.90;99.90;;;;;;5037469;28;20205;-87
2020/12/19 04:44:36;;;;;;;0.50;0.50;;;2.90;99.90;;;;;;5035468;28;20213;-86
2020/12/19 04:47:03;;;;;;;0.50;0.50;;;2.90;99.90;;;;;;5033150;28;20224;-87
2020/12/19 04:49:33;;;;;;;0.50;0.50;;;2.90;99.90;;;;;;5033481;28;20295;-87
2020/12/19 04:51:59;;;;;;;0.50;0.50;;;2.90;99.90;;;;;;5033806;28;20209;-87
2020/12/19 04:54:26;;;;;;;0.50;0.50;;;3.00;99.90;;;;;;5033409;28;20212;-87
2020/12/19 04:56:55;;;;;;;0.50;0.50;;;2.40;99.90;;;;;;5034044;28;20201;-87
2020/12/19 04:59:24;;;;;;;0.50;0.50;;;2.90;99.90;;;;;;5033763;28;20641;-88
2020/12/19 05:01:51;;;;;;;0.50;0.50;;;3.00;99.90;;;;;;5033303;28;20676;-88
2020/12/19 05:04:17;;;;;;;0.50;0.50;;;3.00;99.90;;;;;;5033444;28;20205;-88
2020/12/19 05:06:45;;;;;;;0.50;0.50;;;2.90;99.90;;;;;;5033641;28;20228;-88
2020/12/19 05:09:14;;;;;;;0.50;0.50;;;2.90;99.90;;;;;;5033034;28;20207;-86
2020/12/19 05:11:40;;;;;;;0.50;0.50;;;2.90;99.90;;;;;;5033002;28;20213;-88
2020/12/19 05:14:07;;;;;;;0.50;0.50;;;2.80;99.90;;;;;;5032991;28;20269;-87
2020/12/19 05:16:37;;;;;;;0.50;0.50;;;2.70;99.90;;;;;;5032920;28;20209;-86
2020/12/19 05:19:07;;;;;;;0.50;0.50;;;2.70;99.90;;;;;;5032914;28;20251;-88
2020/12/19 05:21:43;;;;;;;0.50;0.50;;;2.50;99.90;;;;;;5032989;28;20197;-88
2020/12/19 05:24:11;;;;;;;0.50;0.50;;;2.60;99.90;;;;;;5032950;28;20299;-88
2020/12/19 05:26:38;;;;;;;0.50;0.50;;;2.50;99.90;;;;;;5032821;28;20593;-88
2020/12/19 05:29:05;;;;;;;0.50;0.50;;;2.60;99.90;;;;;;5033021;28;20556;-87
2020/12/19 05:31:36;;;;;;;0.50;0.50;;;2.60;99.90;;;;;;5032699;28;20201;-87
2020/12/19 05:34:04;;;;;;;0.57;0.57;;;4.50;99.90;;;;;;5033171;28;20205;-87
2020/12/19 05:36:30;;;;;;;0.50;0.50;;;2.70;99.90;;;;;;5032838;28;20224;-86
2020/12/19 05:39:01;;;;;;;0.50;0.50;;;2.60;99.90;;;;;;5032998;28;20259;-86
2020/12/19 05:41:28;;;;;;;0.50;0.50;;;3.70;99.90;;;;;;5032897;28;20228;-88
2020/12/19 05:43:58;;;;;;;0.50;0.50;;;2.60;99.90;;;;;;5032695;28;20205;-88
2020/12/19 05:46:29;;;;;;;0.50;0.50;;;2.80;99.90;;;;;;5032628;28;20251;-88
2020/12/19 05:48:55;;;;;;;0.50;0.50;;;2.60;99.90;;;;;;5032536;28;20240;-87
2020/12/19 05:51:25;;;;;;;0.50;0.50;;;2.70;99.90;;;;;;5032581;28;20209;-86
2020/12/19 05:53:52;;;;;;;0.50;0.50;;;1.90;99.90;;;;;;5032816;28;20208;-86
2020/12/19 05:56:19;;;;;;;0.50;0.50;;;2.60;99.90;;;;;;5031950;28;20353;-88
2020/12/19 05:58:50;;;;;;;0.50;0.50;;;2.50;99.90;;;;;;5032472;28;20216;-87
2020/12/19 06:01:21;;;;;;;0.50;0.50;;;2.90;99.90;;;;;;5032399;28;20227;-88
2020/12/19 06:03:50;;;;;;;0.50;0.50;;;4.30;99.90;;;;;;5032472;28;20207;-86
2020/12/19 06:06:19;;;;;;;0.50;0.50;;;2.60;99.90;;;;;;5032270;28;20332;-87
2020/12/19 06:08:48;;;;;;;0.50;0.50;;;2.60;99.90;;;;;;5032405;28;20624;-88
2020/12/19 06:11:19;;;;;;;0.50;0.50;;;2.40;99.90;;;;;;5032304;28;20212;-86
2020/12/19 06:13:51;;;;;;;0.50;0.50;;;2.50;99.90;;;;;;5032537;28;20212;-87
2020/12/19 06:16:18;;;;;;;0.50;0.50;;;2.50;99.90;;;;;;5032424;28;20565;-87
2020/12/19 06:19:06;;;;;;;0.50;0.50;;;2.40;99.90;;;;;;5032439;28;20224;-87
2020/12/19 06:21:33;;;;;;;0.50;0.50;;;;;;;;;;5032071;28;20585;-86
2020/12/19 06:24:00;;;;;;;0.50;0.50;;;2.40;99.90;;;;;;5032230;28;20205;-86
2020/12/19 06:26:37;;;;;;;0.50;0.50;;;2.50;99.90;;;;;;5032030;28;20236;-87
2020/12/19 06:29:05;;;;;;;0.50;0.50;;;2.40;99.90;;;;;;5032209;28;20205;-87
2020/12/19 06:31:31;;;;;;;0.50;0.50;;;2.50;99.90;;;;;;5032146;28;20340;-87
2020/12/19 06:34:04;;;;;;;0.50;0.50;;;2.40;99.90;;;;;;5032401;28;20205;-86
2020/12/19 06:36:32;;;;;;;0.50;0.50;;;2.40;99.90;;;;;;5032554;28;20660;-87
2020/12/19 06:39:08;;;;;;;0.50;0.50;;;2.40;99.90;;;;;;5032204;28;20704;-87
2020/12/19 06:41:46;;;;;;;0.50;0.50;;;2.40;99.90;;;;;;5032240;28;20204;-87
2020/12/19 06:44:15;;;;;;;0.50;0.50;;;3.00;99.90;;;;;;5032826;28;20682;-86
2020/12/19 06:46:45;;;;;;;0.50;0.50;;;2.30;99.90;;;;;;5032815;28;20283;-87
2020/12/19 06:49:30;;;;;;;0.50;0.50;;;2.30;99.90;;;;;;5032400;28;20286;-85
2020/12/19 06:52:01;;;;;;;0.50;0.50;;;2.00;99.90;;;;;;5032752;28;20275;-86
2020/12/19 06:54:30;;;;;;;0.50;0.50;;;2.10;99.90;;;;;;5032051;28;20271;-87
2020/12/19 06:56:56;;;;;;;0.50;0.50;;;;;;;;;;5032161;28;20406;-86
2020/12/19 06:59:30;;;;;;;0.40;0.40;;;2.30;99.90;;;;;;5032251;28;20236;-86
2020/12/19 07:02:16;;;;;;;0.50;0.50;;;3.80;99.90;;;;;;5032648;28;20208;-87
2020/12/19 07:04:42;;;;;;;0.50;0.50;;;;;;;;;;5032531;28;20209;-87
2020/12/19 07:07:12;;;;;;;0.50;0.50;;;2.30;99.90;;;;;;5032105;28;20315;-85
2020/12/19 07:09:40;;;;;;;0.50;0.50;;;3.80;99.90;;;;;;5031791;28;20582;-88
2020/12/19 07:12:09;;;;;;;0.50;0.50;;;;;;;;;;5032647;28;20457;-88
2020/12/19 07:14:39;;;;;;;0.50;0.50;;;2.20;99.90;;;;;;5032133;28;20205;-88
2020/12/19 07:17:16;;;;;;;0.50;0.50;;;2.20;99.90;;;;;;5031903;28;20201;-88
2020/12/19 07:19:44;;;;;;;0.50;0.50;;;;;;;;;;5032251;28;20203;-87
2020/12/19 07:22:13;;;;;;;0.50;0.50;;;2.20;99.90;;;;;;5032196;28;20205;-89
2020/12/19 07:24:40;;;;;;;0.50;0.50;;;2.20;99.90;;;;;;5031755;28;20213;-88
2020/12/19 07:27:07;;;;;;;0.50;0.50;;;;;;;;;;5031752;28;20232;-88
2020/12/19 07:29:33;;;;;;;0.50;0.50;;;;;;;;;;5031715;28;20637;-88
2020/12/19 07:32:00;;;;;;;0.50;0.50;;;2.10;99.90;;;;;;5031371;28;20205;-88
2020/12/19 07:34:29;;;;;;;0.50;0.50;;;2.10;99.90;;;;;;5031157;28;20705;-86
2020/12/19 07:36:55;;;;;;;0.50;0.50;;;;;;;;;;5031339;28;20625;-87
2020/12/19 07:39:23;;;;;;;0.50;0.50;;;2.10;99.90;;;;;;5031215;28;20213;-87
2020/12/19 07:42:04;;;;;;;0.50;0.50;;;1.90;99.90;;;;;;5031169;28;20212;-86
2020/12/19 07:44:31;;;;;;;0.50;0.50;;;;;;;;;;5031015;28;20897;-88
2020/12/19 07:47:00;;;;;;;0.50;0.50;;;2.00;99.90;;;;;;5031076;28;20263;-88
2020/12/19 07:49:34;;;;;;;0.50;0.50;;;2.30;99.90;;;;;;5030543;28;20267;-87
2020/12/19 07:52:18;;;;;;;0.50;0.50;;;2.30;99.90;;;;;;5031107;28;20219;-88
2020/12/19 07:54:55;;;;;;;0.50;0.50;;;2.10;99.90;;;;;;5031148;28;20213;-87
2020/12/19 07:57:26;;;;;;;0.50;0.50;;;2.20;99.90;;;;;;5030922;28;20230;-87
2020/12/19 07:59:53;;;;;;;0.50;0.50;;;2.30;99.90;;;;;;5030804;28;20263;-86
2020/12/19 08:02:23;;;;;;;0.50;0.50;;;2.30;99.90;;;;;;5030745;28;20684;-87
2020/12/19 08:04:51;;;;;;;0.50;0.50;;;2.30;99.90;;;;;;5031093;28;20209;-88
2020/12/19 08:07:18;;;;;;;0.50;0.50;;;2.30;99.90;;;;;;5030603;28;20407;-87
2020/12/19 08:09:45;;;;;;;0.50;0.50;;;2.30;99.90;;;;;;5030636;28;20212;-87
2020/12/19 08:12:15;;;;;;;0.50;0.50;;;2.40;99.90;;;;;;5030858;28;20212;-87
2020/12/19 08:14:44;;;;;;;0.50;0.50;;;2.40;99.90;;;;;;5031211;28;20198;-86
2020/12/19 08:17:17;;;;;;;0.50;0.50;;;4.20;99.90;;;;;;5031167;28;20526;-87
2020/12/19 08:19:47;;;;;;;0.50;0.50;;;2.30;99.90;;;;;;5032514;28;20670;-87
2020/12/19 08:22:13;;;;;;;0.50;0.50;;;2.30;99.90;;;;;;5034548;28;20263;-87
2020/12/19 08:24:40;;;;;;;0.50;0.50;;;2.30;99.90;;;;;;5035204;28;20223;-87
2020/12/19 08:27:40;;;;;;;0.50;0.50;;;2.40;99.90;;;;;;5035330;28;20232;-87
2020/12/19 08:30:11;;;;;;;0.50;0.50;;;2.40;99.90;;;;;;5035050;28;20295;-86
2020/12/19 08:32:42;;;;;;;0.50;0.50;;;2.30;99.90;;;;;;5035025;28;20867;-86
2020/12/19 08:35:10;;;;;;;0.50;0.50;;;2.40;99.90;;;;;;5035123;28;20208;-87
2020/12/19 08:37:37;;;;;;;0.50;0.50;;;2.10;99.90;;;;;;5034899;28;20245;-87
2020/12/19 08:40:08;;;;;;;0.50;0.50;;;2.30;99.90;;;;;;5034704;28;20213;-86
2020/12/19 08:42:39;;;;;;;0.50;0.50;;;2.40;99.90;;;;;;5033731;28;20205;-87
2020/12/19 08:45:31;;;;;;;0.50;0.50;;;2.50;99.90;;;;;;5034366;28;20244;-86
2020/12/19 08:48:03;;;;;;;0.50;0.50;;;2.40;99.90;;;;;;5033865;28;20718;-87
2020/12/19 08:50:31;;;;;;;0.50;0.50;;;2.50;99.90;;;;;;5034049;28;20590;-87
2020/12/19 08:53:05;;;;;;;0.50;0.50;;;2.50;99.90;;;;;;5034110;28;20209;-86
2020/12/19 08:55:32;;;;;;;0.50;0.50;;;;;;;;;;5034736;28;20213;-87
2020/12/19 08:57:59;;;;;;;0.50;0.50;;;;;;;;;;5034696;28;20649;-87
2020/12/19 09:00:32;;;;;;;0.50;0.50;;;2.50;99.90;;;;;;5034560;28;20225;-87
2020/12/19 09:03:03;;;;;;;0.50;0.50;;;2.50;99.90;;;;;;5035025;28;20603;-87
2020/12/19 09:05:33;;;;;;;0.50;0.50;;;2.50;99.90;;;;;;5034704;28;20318;-86
2020/12/19 09:08:00;;;;;;;0.50;0.50;;;2.60;99.90;;;;;;5053686;28;20225;-87
2020/12/19 09:10:28;;;;;;;0.50;0.50;;;2.50;99.90;;;;;;5053687;28;20277;-87
2020/12/19 09:13:22;;;;;;;0.50;0.50;;;2.60;99.90;;;;;;5043975;28;20697;-85
2020/12/19 09:15:51;;;;;;;0.50;0.50;;;2.80;99.90;;;;;;5039650;28;20216;-86
2020/12/19 09:18:23;;;;;;;0.50;0.50;;;2.70;99.90;;;;;;5040854;28;20223;-87
2020/12/19 09:20:57;;;;;;;0.50;0.50;;;2.70;99.90;;;;;;5043206;28;20635;-86
2020/12/19 09:23:29;;;;;;;0.50;0.50;;;3.00;99.90;;;;;;5043708;28;20208;-87
2020/12/19 09:25:58;;;;;;;0.50;0.50;;;2.80;99.90;;;;;;5042417;28;20331;-85
2020/12/19 09:28:25;;;;;;;0.50;0.50;;;2.80;99.90;;;;;;5042953;28;20311;-86
2020/12/19 09:30:53;;;;;;;0.50;0.50;;;3.60;99.90;;;;;;5043421;28;20862;-86
2020/12/19 09:33:25;;;;;;;0.50;0.50;;;4.70;99.90;;;;;;5050229;28;20204;-88
2020/12/19 09:35:53;;;;;;;0.50;0.50;;;;;;;;;;5053058;28;20291;-88
2020/12/19 09:38:20;;;;;;;0.50;0.50;;;;;;;;;;5041924;28;20774;-87
2020/12/19 09:40:49;;;;;;;0.50;0.50;;;;;;;;;;5043042;28;20224;-88
2020/12/19 09:43:18;;;;;;;0.50;0.50;;;3.20;99.90;;;;;;5041322;28;20243;-88
2020/12/19 09:45:45;;;;;;;0.50;0.50;;;;;;;;;;5040996;28;20287;-89
2020/12/19 09:48:19;;;;;;;0.50;0.50;;;3.30;99.90;;;;;;5043137;28;20276;-89
2020/12/19 09:50:52;;;;;;;0.50;0.50;;;;;;;;;;5042294;28;20301;-88
2020/12/19 09:53:21;;;;;;;0.50;0.50;;;3.40;99.90;;;;;;5041536;28;20201;-89
2020/12/19 09:56:05;;;;;;;0.50;0.50;;;3.40;99.90;;;;;;5041052;28;20200;-89
2020/12/19 09:58:39;;;;;;;0.50;0.50;;;3.30;99.90;;;;;;5042830;28;20247;-88
2020/12/19 10:01:23;;;;;;;0.50;0.50;;;3.50;99.90;;;;;;5038744;28;20318;-88
2020/12/19 10:03:49;;;;;;;0.50;0.50;;;5.20;99.90;;;;;;5033625;28;20634;-87
2020/12/19 10:06:16;;;;;;;0.50;0.50;;;3.60;99.90;;;;;;5033364;28;20209;-86
2020/12/19 10:08:42;;;;;;;0.50;0.50;;;3.60;99.90;;;;;;5033177;28;20585;-85
2020/12/19 10:11:11;;;;;;;0.50;0.50;;;;;;;;;;5033164;28;20209;-85
2020/12/19 10:13:38;;;;;;;0.50;0.50;;;3.70;99.90;;;;;;5033164;28;20205;-86
2020/12/19 10:16:06;;;;;;;0.47;0.47;;;3.80;99.90;;;;;;5033373;28;20208;-85
2020/12/19 10:18:33;;;;;;;0.50;0.50;;;;;;;;;;5039836;28;20308;-89
2020/12/19 10:21:09;;;;;;;0.50;0.50;;;3.90;99.90;;;;;;5040908;28;20196;-87
2020/12/19 10:23:35;;;;;;;0.50;0.50;;;;;;;;;;5022381;28;20235;-86
2020/12/19 10:26:02;;;;;;;0.50;0.50;;;4.10;99.90;;;;;;5018135;28;20204;-87
2020/12/19 10:28:28;;;;;;;0.50;0.50;;;4.00;99.90;;;;;;5037475;28;20221;-88
2020/12/19 10:30:58;;;;;;;0.50;0.50;;;4.20;99.90;;;;;;5033669;28;20691;-87
2020/12/19 10:33:25;;;;;;;0.50;0.50;;;;;;;;;;5042179;28;20200;-87
2020/12/19 10:35:53;;;;;;;0.50;0.50;;;;;;;;;;5041518;28;20251;-86
2020/12/19 10:38:23;;;;;;;0.50;0.50;;;4.30;99.90;;;;;;5041565;28;20548;-87
2020/12/19 10:40:49;;;;;;;0.50;0.50;;;4.40;99.90;;;;;;5041551;28;20620;-86
2020/12/19 10:43:15;;;;;;;0.50;0.50;;;4.50;99.90;;;;;;5041548;28;20200;-86
2020/12/19 10:45:41;;;;;;;0.50;0.50;;;4.50;99.90;;;;;;5043533;28;20204;-87
2020/12/19 10:48:08;;;;;;;0.50;0.50;;;4.60;99.90;;;;;;5042566;28;20220;-85
2020/12/19 10:50:47;;;;;;;0.50;0.50;;;4.70;99.90;;;;;;5041054;28;20241;-86
2020/12/19 10:53:13;;;;;;;0.50;0.50;;;4.70;99.90;;;;;;5031671;28;20275;-87
2020/12/19 10:55:42;;;;;;;0.50;0.50;;;4.80;99.90;;;;;;5035917;28;20209;-87
2020/12/19 10:58:09;;;;;;;0.50;0.50;;;;;;;;;;5045813;28;20197;-87
2020/12/19 11:00:38;;;;;;;0.50;0.50;;;5.00;99.90;;;;;;5032449;28;20213;-87
2020/12/19 11:03:06;;;;;;;0.50;0.50;;;5.00;99.90;;;;;;5032443;28;20224;-87
2020/12/19 11:05:33;;;;;;;0.50;0.50;;;4.50;99.90;;;;;;5031743;28;20205;-87
2020/12/19 11:07:59;;;;;;;0.50;0.50;;;5.70;99.90;;;;;;5035914;28;20233;-87
2020/12/19 11:10:33;;;;;;;0.50;0.50;;;5.70;99.90;;;;;;5034987;28;20254;-87
2020/12/19 11:13:03;;;;;;;0.50;0.50;;;6.00;99.90;;;;;;5032253;28;20279;-88
2020/12/19 11:15:34;;;;;;;0.55;0.55;;;6.40;99.90;;;;;;5031744;28;20263;-87
2020/12/19 11:18:03;;;;;;;0.50;0.50;;;6.20;99.90;;;;;;5032500;28;20525;-87
2020/12/19 11:20:32;;;;;;;0.50;0.50;;;6.40;99.90;;;;;;5042273;28;20274;-88
2020/12/19 11:22:59;;;;;;;0.50;0.50;;;;;;;;;;5037606;28;20233;-88
2020/12/19 11:25:34;;;;;;;0.50;0.50;;;;;;;;;;5041353;28;20205;-87
2020/12/19 11:28:03;;;;;;;0.50;0.50;;;7.90;99.90;;;;;;5041979;28;20220;-87
2020/12/19 11:30:30;;;;;;;0.60;0.60;;;8.50;99.90;;;;;;5042400;28;20212;-87
2020/12/19 11:32:56;;;;;;;0.50;0.50;;;8.80;99.90;;;;;;5040019;28;20219;-88
2020/12/19 11:35:22;;;;;;;0.60;0.60;;;9.20;99.90;;;;;;5041116;28;20246;-88
2020/12/19 11:37:48;;;;;;;0.50;0.50;;;9.10;99.90;;;;;;5040731;28;20682;-89
2020/12/19 11:40:15;;;;;;;0.50;0.50;;;9.50;99.90;;;;;;5041780;28;20208;-87
2020/12/19 11:42:41;;;;;;;0.50;0.50;;;10.10;99.90;;;;;;5042073;28;20192;-89
2020/12/19 11:45:08;;;;;;;0.60;0.60;;;9.60;99.90;;;;;;5042651;28;20224;-88
2020/12/19 11:47:35;;;;;;;0.60;0.60;;;9.70;99.90;;;;;;5040538;28;20217;-88
2020/12/19 11:50:02;;;;;;;0.50;0.50;;;9.50;99.90;;;;;;5041639;28;20736;-88
2020/12/19 11:52:28;;;;;;;0.50;0.50;;;9.80;99.90;;;;;;5042527;28;20338;-88
2020/12/19 11:54:54;;;;;;;0.50;0.50;;;9.90;99.90;;;;;;5041904;28;20197;-88
2020/12/19 11:57:20;;;;;;;0.50;0.50;;;9.90;99.90;;;;;;5046158;28;20694;-88
2020/12/19 11:59:46;;;;;;;0.50;0.50;;;9.90;99.90;;;;;;5046205;28;20207;-89
2020/12/19 12:02:13;;;;;;;0.50;0.50;;;9.90;99.90;;;;;;5044830;28;20205;-87
2020/12/19 12:04:40;;;;;;;0.50;0.50;;;10.20;99.90;;;;;;5046187;28;20200;-89
2020/12/19 12:07:06;;;;;;;0.60;0.60;;;9.90;99.90;;;;;;5046088;28;20227;-89
2020/12/19 12:09:32;;;;;;;0.50;0.50;;;10.00;99.90;;;;;;5044137;28;20201;-87
2020/12/19 12:12:02;;;;;;;0.50;0.50;;;10.00;99.90;;;;;;5046436;28;20196;-89
2020/12/19 12:14:28;;;;;;;0.60;0.60;;;10.00;99.90;;;;;;5046334;28;20269;-87
2020/12/19 12:16:54;;;;;;;0.60;0.60;;;9.90;99.90;;;;;;5044530;28;20676;-88
2020/12/19 12:19:23;;;;;;;0.60;0.60;;;9.80;99.90;;;;;;5045752;28;20196;-89
2020/12/19 12:21:49;;;;;;;0.60;0.60;;;10.60;99.90;;;;;;5045191;28;20201;-88
2020/12/19 12:24:15;;;;;;;0.60;0.60;;;9.90;99.90;;;;;;5055700;28;20211;-89
2020/12/19 12:26:41;;;;;;;0.50;0.50;;;9.80;99.90;;;;;;5054886;28;20440;-87
2020/12/19 12:29:07;;;;;;;0.60;0.60;;;9.80;99.90;;;;;;5054575;28;20216;-87
2020/12/19 12:31:36;;;;;;;0.50;0.50;;;9.70;99.90;;;;;;5049422;28;20204;-89
2020/12/19 12:34:26;;;;;;;0.60;0.60;;;9.70;99.90;;;;;;5043944;28;20201;-90
2020/12/19 12:37:43;;;;;;;0.60;0.60;;;9.50;99.90;;;;;;5045104;28;20196;-91
2020/12/19 12:40:09;;;;;;;0.50;0.50;;;10.40;99.90;;;;;;5030199;28;20201;-90
2020/12/19 12:42:35;;;;;;;0.50;0.50;;;9.40;99.90;;;;;;5043458;28;20205;-90
2020/12/19 12:45:08;;;;;;;0.60;0.60;;;9.90;99.90;;;;;;5044645;28;20196;-91
2020/12/19 14:05:24;;;;;;;0.50;0.50;;;8.20;99.90;;;;;;4691130;30;20227;-91
2020/12/19 14:11:17;;;;;;;0.60;0.60;;;8.10;99.90;;;;;;4806198;29;20236;-89
2020/12/19 14:13:43;;;;;;;0.60;0.60;;;7.90;99.90;;;;;;4913260;29;20201;-88
2020/12/19 14:16:10;;;;;;;0.50;0.50;;;7.90;99.90;;;;;;4915374;29;20575;-89
2020/12/19 14:18:51;;;;;;;0.50;0.50;;;8.40;99.90;;;;;;4914931;29;20213;-89
2020/12/19 14:21:23;;;;;;;0.52;0.52;;;7.70;99.90;;;;;;4937119;28;20222;-90
2020/12/19 14:23:51;;;;;;;0.60;0.60;;;7.60;99.90;;;;;;4991815;28;20620;-90
2020/12/19 14:26:21;;;;;;;0.50;0.50;;;7.60;99.90;;;;;;4992072;28;20217;-90
2020/12/19 14:28:48;;;;;;;0.60;0.60;;;7.50;99.90;;;;;;4991346;28;20759;-90
2020/12/19 14:31:25;;;;;;;0.60;0.60;;;7.40;99.90;;;;;;4991177;28;20202;-90
2020/12/19 14:33:57;;;;;;;0.60;0.60;;;7.70;99.90;;;;;;4990502;28;20234;-91